createdAt,value
2023-02-06T00:00:47.376Z,102470.00
2023-02-06T00:03:14.918Z,102464.00
2023-02-06T00:05:42.286Z,102450.00
2023-02-06T00:08:09.641Z,102450.00
2023-02-06T00:10:37.176Z,102451.00
2023-02-06T00:13:04.495Z,102446.00
2023-02-06T00:15:32.685Z,102437.00
2023-02-06T00:18:00.680Z,102437.00
2023-02-06T00:20:27.943Z,102423.00
2023-02-06T00:22:55.174Z,102415.00
2023-02-06T00:25:22.433Z,102419.00
2023-02-06T00:27:49.670Z,102423.00
2023-02-06T00:30:17.259Z,102416.00
2023-02-06T00:32:44.602Z,102416.00
2023-02-06T00:35:12.855Z,102406.00
2023-02-06T00:37:40.122Z,102400.00
2023-02-06T00:40:09.013Z,102408.00
2023-02-06T00:42:36.277Z,102403.00
2023-02-06T00:45:03.941Z,102406.00
2023-02-06T00:47:31.277Z,102417.00
2023-02-06T00:49:58.534Z,102417.00
2023-02-06T00:52:26.653Z,102420.00
2023-02-06T00:54:54.728Z,102427.00
2023-02-06T00:57:22.005Z,102433.00
2023-02-06T00:59:49.282Z,102430.00
2023-02-06T01:02:16.549Z,102427.00
2023-02-06T01:04:43.855Z,102419.00
2023-02-06T01:07:11.474Z,102412.00
2023-02-06T01:09:39.703Z,102424.00
2023-02-06T01:12:07.468Z,102423.00
2023-02-06T01:14:34.767Z,102429.00
2023-02-06T01:17:02.044Z,102425.00
2023-02-06T01:19:29.334Z,102426.00
2023-02-06T01:21:56.617Z,102403.00
2023-02-06T01:24:23.861Z,102413.00
2023-02-06T01:26:51.855Z,102419.00
2023-02-06T01:29:19.190Z,102419.00
2023-02-06T01:31:46.820Z,102419.00
2023-02-06T01:34:14.228Z,102418.00
2023-02-06T01:36:41.485Z,102428.00
2023-02-06T01:39:09.682Z,102426.00
2023-02-06T01:41:37.070Z,102433.00
2023-02-06T01:44:11.118Z,102430.00
2023-02-06T01:46:38.744Z,102422.00
2023-02-06T01:49:08.028Z,102425.00
2023-02-06T01:51:35.461Z,102430.00
2023-02-06T01:54:06.470Z,102443.00
2023-02-06T01:56:38.267Z,102448.00
2023-02-06T01:59:05.583Z,102452.00
2023-02-06T02:01:33.776Z,102457.00
2023-02-06T02:04:05.590Z,102464.00
2023-02-06T02:06:33.387Z,102453.00
2023-02-06T02:09:02.758Z,102461.00
2023-02-06T02:11:32.949Z,102447.00
2023-02-06T02:14:01.318Z,102451.00
2023-02-06T02:16:38.669Z,102453.00
2023-02-06T02:19:32.969Z,102446.00
2023-02-06T02:22:37.290Z,102431.00
2023-02-06T02:25:35.460Z,102433.00
2023-02-06T02:28:41.482Z,102433.00
2023-02-06T02:31:29.431Z,102424.00
2023-02-06T02:34:21.024Z,102423.00
2023-02-06T02:36:52.243Z,102397.00
2023-02-06T02:39:29.871Z,102385.00
2023-02-06T02:42:10.998Z,102376.00
2023-02-06T02:44:46.246Z,102378.00
2023-02-06T02:47:16.842Z,102373.00
2023-02-06T02:49:45.793Z,102376.00
2023-02-06T02:52:14.788Z,102375.00
2023-02-06T02:54:42.085Z,102361.00
2023-02-06T02:57:14.320Z,102348.00
2023-02-06T02:59:44.721Z,102352.00
2023-02-06T03:02:15.636Z,102344.00
2023-02-06T03:04:47.447Z,102346.00
2023-02-06T03:07:24.607Z,102352.00
2023-02-06T03:10:03.641Z,102362.00
2023-02-06T03:12:39.507Z,102354.00
2023-02-06T03:15:14.715Z,102342.00
2023-02-06T03:17:47.487Z,102351.00
2023-02-06T03:20:16.214Z,102352.00
2023-02-06T03:22:47.543Z,102345.00
2023-02-06T03:25:20.305Z,102347.00
2023-02-06T03:27:49.853Z,102340.00
2023-02-06T03:30:19.575Z,102345.00
2023-02-06T03:32:49.739Z,102352.00
2023-02-06T03:35:20.683Z,102353.00
2023-02-06T03:37:49.406Z,102361.00
2023-02-06T03:40:17.916Z,102357.00
2023-02-06T03:42:50.123Z,102352.00
2023-02-06T03:45:22.393Z,102363.00
2023-02-06T03:47:50.185Z,102365.00
2023-02-06T03:50:18.982Z,102363.00
2023-02-06T03:52:49.934Z,102353.00
2023-02-06T03:55:20.463Z,102357.00
2023-02-06T03:57:52.125Z,102343.00
2023-02-06T04:00:19.789Z,102348.00
2023-02-06T04:02:48.484Z,102347.00
2023-02-06T04:05:17.401Z,102340.00
2023-02-06T04:07:44.836Z,102342.00
2023-02-06T04:10:12.812Z,102344.00
2023-02-06T04:12:40.139Z,102345.00
2023-02-06T04:15:07.926Z,102342.00
2023-02-06T04:17:49.838Z,102347.00
2023-02-06T04:20:21.219Z,102338.00
2023-02-06T04:22:48.558Z,102339.00
2023-02-06T04:25:16.635Z,102342.00
2023-02-06T04:27:43.907Z,102348.00
2023-02-06T04:30:12.416Z,102355.00
2023-02-06T04:32:39.699Z,102365.00
2023-02-06T04:35:07.239Z,102364.00
2023-02-06T04:37:34.485Z,102365.00
2023-02-06T04:40:01.790Z,102373.00
2023-02-06T04:42:29.736Z,102369.00
2023-02-06T04:44:57.020Z,102378.00
2023-02-06T04:47:24.297Z,102369.00
2023-02-06T04:49:51.585Z,102369.00
2023-02-06T04:52:18.920Z,102384.00
2023-02-06T04:54:46.240Z,102374.00
2023-02-06T04:57:13.686Z,102377.00
2023-02-06T04:59:41.670Z,102372.00
2023-02-06T05:02:08.966Z,102370.00
2023-02-06T05:04:38.205Z,102385.00
2023-02-06T05:07:05.745Z,102396.00
2023-02-06T05:09:33.378Z,102389.00
2023-02-06T05:12:00.691Z,102375.00
2023-02-06T05:14:27.983Z,102378.00
2023-02-06T05:16:56.041Z,102367.00
2023-02-06T05:19:23.430Z,102375.00
2023-02-06T05:21:50.741Z,102366.00
2023-02-06T05:24:18.143Z,102359.00
2023-02-06T05:26:45.876Z,102353.00
2023-02-06T05:29:13.134Z,102352.00
2023-02-06T05:31:40.470Z,102354.00
2023-02-06T05:34:10.022Z,102358.00
2023-02-06T05:36:37.416Z,102365.00
2023-02-06T05:39:04.823Z,102366.00
2023-02-06T05:41:32.362Z,102354.00
2023-02-06T05:43:59.671Z,102359.00
2023-02-06T05:46:26.950Z,102358.00
2023-02-06T05:48:54.237Z,102369.00
2023-02-06T05:51:22.174Z,102358.00
2023-02-06T05:53:49.562Z,102355.00
2023-02-06T05:56:17.005Z,102356.00
2023-02-06T05:58:44.273Z,102357.00
2023-02-06T06:01:12.364Z,102347.00
2023-02-06T06:03:39.743Z,102355.00
2023-02-06T06:06:07.731Z,102344.00
2023-02-06T06:08:35.768Z,102358.00
2023-02-06T06:11:03.062Z,102356.00
2023-02-06T06:13:30.566Z,102357.00
2023-02-06T06:15:57.909Z,102351.00
2023-02-06T06:18:26.343Z,102350.00
2023-02-06T06:20:54.007Z,102336.00
2023-02-06T06:23:21.306Z,102364.00
2023-02-06T06:25:50.130Z,102381.00
2023-02-06T06:28:17.508Z,102366.00
2023-02-06T06:30:44.840Z,102363.00
2023-02-06T06:33:14.606Z,102367.00
2023-02-06T06:35:41.906Z,102368.00
2023-02-06T06:38:09.679Z,102374.00
2023-02-06T06:40:37.086Z,102371.00
2023-02-06T06:43:05.214Z,102371.00
2023-02-06T06:45:32.529Z,102373.00
2023-02-06T06:48:00.165Z,102369.00
2023-02-06T06:50:27.950Z,102369.00
2023-02-06T06:52:55.477Z,102371.00
2023-02-06T06:55:23.015Z,102366.00
2023-02-06T06:57:50.586Z,102355.00
2023-02-06T07:00:19.664Z,102354.00
2023-02-06T07:02:47.114Z,102365.00
2023-02-06T07:05:14.561Z,102375.00
2023-02-06T07:07:41.863Z,102365.00
2023-02-06T07:10:10.515Z,102368.00
2023-02-06T07:12:38.334Z,102372.00
2023-02-06T07:15:06.526Z,102367.00
2023-02-06T07:17:34.557Z,102362.00
2023-02-06T07:20:01.884Z,102362.00
2023-02-06T07:22:29.102Z,102366.00
2023-02-06T07:24:56.473Z,102369.00
2023-02-06T07:27:23.736Z,102355.00
2023-02-06T07:29:51.093Z,102360.00
2023-02-06T07:32:18.712Z,102370.00
2023-02-06T07:34:46.836Z,102357.00
2023-02-06T07:37:14.111Z,102355.00
2023-02-06T07:39:41.509Z,102359.00
2023-02-06T07:42:08.840Z,102355.00
2023-02-06T07:44:36.138Z,102354.00
2023-02-06T07:47:04.530Z,102362.00
2023-02-06T07:49:31.884Z,102360.00
2023-02-06T07:52:02.845Z,102359.00
2023-02-06T07:54:30.231Z,102363.00
2023-02-06T07:56:57.495Z,102362.00
2023-02-06T07:59:24.819Z,102360.00
2023-02-06T08:01:53.141Z,102356.00
2023-02-06T08:04:20.522Z,102355.00
2023-02-06T08:06:47.802Z,102341.00
2023-02-06T08:09:16.883Z,102355.00
2023-02-06T08:11:44.379Z,102357.00
2023-02-06T08:14:11.684Z,102356.00
2023-02-06T08:16:39.066Z,102351.00
2023-02-06T08:19:10.321Z,102355.00
2023-02-06T08:21:38.146Z,102347.00
2023-02-06T08:24:06.071Z,102351.00
2023-02-06T08:26:34.333Z,102353.00
2023-02-06T08:29:03.786Z,102347.00
2023-02-06T08:31:33.337Z,102344.00
2023-02-06T08:34:00.743Z,102355.00
2023-02-06T08:36:31.237Z,102349.00
2023-02-06T08:38:59.107Z,102349.00
2023-02-06T08:41:28.665Z,102351.00
2023-02-06T08:43:59.115Z,102348.00
2023-02-06T08:46:29.140Z,102348.00
2023-02-06T08:48:57.571Z,102346.00
2023-02-06T08:51:27.195Z,102343.00
2023-02-06T08:53:56.628Z,102342.00
2023-02-06T08:56:24.109Z,102346.00
2023-02-06T08:58:51.458Z,102343.00
2023-02-06T09:01:19.857Z,102345.00
2023-02-06T09:03:47.638Z,102341.00
2023-02-06T09:06:15.593Z,102336.00
2023-02-06T09:08:43.051Z,102332.00
2023-02-06T09:11:11.625Z,102321.00
2023-02-06T09:13:39.161Z,102310.00
2023-02-06T09:16:07.826Z,102322.00
2023-02-06T09:18:36.160Z,102321.00
2023-02-06T09:21:05.635Z,102315.00
2023-02-06T09:23:32.996Z,102320.00
2023-02-06T09:26:00.290Z,102313.00
2023-02-06T09:28:27.645Z,102328.00
2023-02-06T09:30:54.957Z,102322.00
2023-02-06T09:33:22.458Z,102316.00
2023-02-06T09:35:50.362Z,102324.00
2023-02-06T09:38:17.612Z,102321.00
2023-02-06T09:40:44.971Z,102324.00
2023-02-06T09:43:13.619Z,102330.00
2023-02-06T09:45:41.777Z,102331.00
2023-02-06T09:48:19.108Z,102330.00
2023-02-06T09:50:55.702Z,102332.00
2023-02-06T09:53:30.500Z,102343.00
2023-02-06T09:56:09.978Z,102345.00
2023-02-06T09:58:44.357Z,102357.00
2023-02-06T10:01:19.491Z,102337.00
2023-02-06T10:04:13.265Z,102344.00
2023-02-06T10:06:47.380Z,102342.00
2023-02-06T10:09:18.930Z,102343.00
2023-02-06T10:11:51.611Z,102344.00
2023-02-06T10:14:26.591Z,102341.00
2023-02-06T10:16:58.231Z,102345.00
2023-02-06T10:19:36.818Z,102340.00
2023-02-06T10:22:11.907Z,102343.00
2023-02-06T10:24:43.884Z,102336.00
2023-02-06T10:27:13.178Z,102332.00
2023-02-06T10:29:42.297Z,102325.00
2023-02-06T10:32:24.031Z,102330.00
2023-02-06T10:35:03.421Z,102318.00
2023-02-06T10:37:49.172Z,102306.00
2023-02-06T10:40:35.113Z,102310.00
2023-02-06T10:43:12.062Z,102315.00
2023-02-06T10:45:44.723Z,102319.00
2023-02-06T10:48:24.406Z,102337.00
2023-02-06T10:50:56.164Z,102333.00
2023-02-06T10:53:30.125Z,102346.00
2023-02-06T10:55:59.828Z,102333.00
2023-02-06T10:58:31.060Z,102331.00
2023-02-06T11:01:00.304Z,102335.00
2023-02-06T11:03:31.582Z,102319.00
2023-02-06T11:06:01.366Z,102319.00
2023-02-06T11:08:33.099Z,102332.00
2023-02-06T11:11:17.879Z,102327.00
2023-02-06T11:13:48.166Z,102317.00
2023-02-06T11:16:24.280Z,102314.00
2023-02-06T11:18:53.219Z,102292.00
2023-02-06T11:21:49.985Z,102292.00
2023-02-06T11:24:20.937Z,102277.00
2023-02-06T11:26:52.116Z,102280.00
2023-02-06T11:29:21.545Z,102291.00
2023-02-06T11:31:51.769Z,102286.00
2023-02-06T11:34:25.152Z,102280.00
2023-02-06T11:36:54.261Z,102289.00
2023-02-06T11:39:26.934Z,102299.00
2023-02-06T11:42:02.848Z,102304.00
2023-02-06T11:44:36.678Z,102304.00
2023-02-06T11:47:29.828Z,102310.00
2023-02-06T11:50:14.916Z,102314.00
2023-02-06T11:52:46.744Z,102315.00
2023-02-06T11:55:22.545Z,102316.00
2023-02-06T11:58:06.571Z,102322.00
2023-02-06T12:00:36.006Z,102315.00
2023-02-06T12:03:03.768Z,102313.00
2023-02-06T12:05:34.930Z,102308.00
2023-02-06T12:08:05.113Z,102307.00
2023-02-06T12:10:38.290Z,102317.00
2023-02-06T12:13:08.910Z,102311.00
2023-02-06T12:15:46.949Z,102307.00
2023-02-06T12:18:20.202Z,102309.00
2023-02-06T12:20:51.914Z,102312.00
2023-02-06T12:23:25.621Z,102318.00
2023-02-06T12:25:57.624Z,102310.00
2023-02-06T12:28:31.307Z,102306.00
2023-02-06T12:31:04.097Z,102296.00
2023-02-06T12:33:37.948Z,102304.00
2023-02-06T12:36:15.154Z,102299.00
2023-02-06T12:38:47.535Z,102305.00
2023-02-06T12:41:28.407Z,102305.00
2023-02-06T12:43:59.226Z,102299.00
2023-02-06T12:46:28.238Z,102295.00
2023-02-06T12:49:02.367Z,102282.00
2023-02-06T12:51:35.490Z,102284.00
2023-02-06T12:54:10.745Z,102276.00
2023-02-06T12:56:43.875Z,102272.00
2023-02-06T12:59:57.098Z,102269.00
2023-02-06T13:02:56.560Z,102275.00
2023-02-06T13:05:27.828Z,102283.00
2023-02-06T13:08:02.783Z,102276.00
2023-02-06T13:10:30.108Z,102280.00
2023-02-06T13:12:59.294Z,102275.00
2023-02-06T13:15:31.608Z,102282.00
2023-02-06T13:17:59.336Z,102280.00
2023-02-06T13:20:27.529Z,102276.00
2023-02-06T13:23:15.837Z,102278.00
2023-02-06T13:25:52.237Z,102290.00
2023-02-06T13:28:40.310Z,102291.00
2023-02-06T13:31:22.553Z,102295.00
2023-02-06T13:33:53.101Z,102286.00
2023-02-06T13:36:27.002Z,102294.00
2023-02-06T13:39:12.092Z,102293.00
2023-02-06T13:41:41.559Z,102294.00
2023-02-06T13:44:18.821Z,102294.00
2023-02-06T13:47:17.573Z,102287.00
2023-02-06T13:50:21.546Z,102296.00
2023-02-06T13:53:01.593Z,102293.00
2023-02-06T13:55:42.715Z,102295.00
2023-02-06T13:58:34.746Z,102284.00
2023-02-06T14:01:04.772Z,102295.00
2023-02-06T14:03:37.530Z,102307.00
2023-02-06T14:06:16.895Z,102315.00
2023-02-06T14:08:51.408Z,102316.00
2023-02-06T14:11:32.763Z,102315.00
2023-02-06T14:14:27.643Z,102311.00
2023-02-06T14:17:08.350Z,102320.00
2023-02-06T14:19:41.752Z,102317.00
2023-02-06T14:22:19.577Z,102317.00
2023-02-06T14:25:20.291Z,102331.00
2023-02-06T14:27:58.996Z,102330.00
2023-02-06T14:30:34.415Z,102334.00
2023-02-06T14:33:16.146Z,102327.00
2023-02-06T14:36:12.426Z,102328.00
2023-02-06T14:39:28.930Z,102335.00
2023-02-06T14:41:56.594Z,102349.00
2023-02-06T14:44:31.662Z,102335.00
2023-02-06T14:46:59.185Z,102341.00
2023-02-06T14:49:32.343Z,102355.00
2023-02-06T14:52:04.664Z,102349.00
2023-02-06T14:54:36.464Z,102352.00
2023-02-06T14:57:08.414Z,102352.00
2023-02-06T14:59:35.728Z,102356.00
2023-02-06T15:02:13.568Z,102366.00
2023-02-06T15:04:48.920Z,102382.00
2023-02-06T15:07:23.764Z,102369.00
2023-02-06T15:09:58.586Z,102389.00
2023-02-06T15:12:28.652Z,102390.00
2023-02-06T15:15:01.971Z,102397.00
2023-02-06T15:17:30.625Z,102400.00
2023-02-06T15:20:25.710Z,102407.00
2023-02-06T15:23:08.081Z,102401.00
2023-02-06T15:26:04.430Z,102406.00
2023-02-06T15:28:34.867Z,102408.00
2023-02-06T15:31:02.826Z,102422.00
2023-02-06T15:33:35.291Z,102416.00
2023-02-06T15:36:06.726Z,102428.00
2023-02-06T15:39:01.828Z,102434.00
2023-02-06T15:41:38.761Z,102450.00
2023-02-06T15:44:19.599Z,102443.00
2023-02-06T15:46:49.278Z,102461.00
2023-02-06T15:49:33.417Z,102457.00
2023-02-06T15:52:01.831Z,102459.00
2023-02-06T15:54:30.104Z,102456.00
2023-02-06T15:57:03.153Z,102451.00
2023-02-06T15:59:33.303Z,102447.00
2023-02-06T16:02:03.026Z,102449.00
2023-02-06T16:04:33.888Z,102457.00
2023-02-06T16:07:06.629Z,102454.00
2023-02-06T16:09:40.493Z,102460.00
2023-02-06T16:12:08.722Z,102459.00
2023-02-06T16:14:37.826Z,102468.00
2023-02-06T16:17:21.836Z,102462.00
2023-02-06T16:19:52.558Z,102460.00
2023-02-06T16:22:25.743Z,102477.00
2023-02-06T16:24:55.472Z,102476.00
2023-02-06T16:27:24.873Z,102486.00
2023-02-06T16:29:57.782Z,102482.00
2023-02-06T16:32:28.069Z,102492.00
2023-02-06T16:34:55.827Z,102477.00
2023-02-06T16:37:25.613Z,102477.00
2023-02-06T16:39:53.705Z,102475.00
2023-02-06T16:42:23.042Z,102477.00
2023-02-06T16:44:52.907Z,102475.00
2023-02-06T16:47:21.741Z,102485.00
2023-02-06T16:49:49.207Z,102490.00
2023-02-06T16:52:20.280Z,102500.00
2023-02-06T16:54:49.615Z,102506.00
2023-02-06T16:57:24.503Z,102498.00
2023-02-06T16:59:52.015Z,102499.00
2023-02-06T17:02:19.313Z,102494.00
2023-02-06T17:04:46.861Z,102480.00
2023-02-06T17:07:17.942Z,102495.00
2023-02-06T17:09:46.290Z,102490.00
2023-02-06T17:12:16.512Z,102484.00
2023-02-06T17:14:44.027Z,102494.00
2023-02-06T17:17:12.895Z,102490.00
2023-02-06T17:19:40.812Z,102498.00
2023-02-06T17:22:09.127Z,102492.00
2023-02-06T17:24:37.427Z,102504.00
2023-02-06T17:27:05.809Z,102503.00
2023-02-06T17:29:34.506Z,102508.00
2023-02-06T17:32:02.281Z,102521.00
2023-02-06T17:34:29.671Z,102529.00
2023-02-06T17:36:57.048Z,102533.00
2023-02-06T17:39:25.069Z,102538.00
2023-02-06T17:41:52.519Z,102540.00
2023-02-06T17:44:19.919Z,102536.00
2023-02-06T17:46:49.243Z,102525.00
2023-02-06T17:49:17.181Z,102522.00
2023-02-06T17:51:45.600Z,102528.00
2023-02-06T17:54:13.380Z,102521.00
2023-02-06T17:56:40.677Z,102527.00
2023-02-06T17:59:08.072Z,102535.00
2023-02-06T18:01:35.956Z,102542.00
2023-02-06T18:04:04.244Z,102532.00
2023-02-06T18:06:33.837Z,102533.00
2023-02-06T18:09:01.213Z,102536.00
2023-02-06T18:11:29.033Z,102536.00
2023-02-06T18:13:56.366Z,102540.00
2023-02-06T18:16:25.934Z,102547.00
2023-02-06T18:18:54.039Z,102539.00
2023-02-06T18:21:23.830Z,102525.00
2023-02-06T18:23:52.374Z,102543.00
2023-02-06T18:26:20.075Z,102540.00
2023-02-06T18:28:47.375Z,102544.00
2023-02-06T18:31:24.708Z,102554.00
2023-02-06T18:33:52.638Z,102544.00
2023-02-06T18:36:22.047Z,102539.00
2023-02-06T18:38:49.348Z,102540.00
2023-02-06T18:41:35.355Z,102554.00
2023-02-06T18:44:03.783Z,102540.00
2023-02-06T18:46:31.490Z,102533.00
2023-02-06T18:48:58.884Z,102536.00
2023-02-06T18:51:28.353Z,102530.00
2023-02-06T18:53:56.182Z,102520.00
2023-02-06T18:56:23.760Z,102528.00
2023-02-06T18:58:51.074Z,102527.00
2023-02-06T19:01:20.159Z,102536.00
2023-02-06T19:03:47.493Z,102533.00
2023-02-06T19:06:16.844Z,102533.00
2023-02-06T19:08:46.606Z,102532.00
2023-02-06T19:11:14.748Z,102537.00
2023-02-06T19:13:42.560Z,102522.00
2023-02-06T19:16:12.509Z,102528.00
2023-02-06T19:18:42.214Z,102526.00
2023-02-06T19:21:11.703Z,102534.00
2023-02-06T19:23:39.561Z,102528.00
2023-02-06T19:26:08.669Z,102538.00
2023-02-06T19:28:36.485Z,102544.00
2023-02-06T19:31:07.725Z,102544.00
2023-02-06T19:33:38.546Z,102546.00
2023-02-06T19:36:07.007Z,102562.00
2023-02-06T19:38:34.444Z,102573.00
2023-02-06T19:41:07.292Z,102567.00
2023-02-06T19:43:35.805Z,102569.00
2023-02-06T19:46:04.565Z,102587.00
2023-02-06T19:48:31.974Z,102591.00
2023-02-06T19:51:04.477Z,102592.00
2023-02-06T19:53:33.610Z,102595.00
2023-02-06T19:56:00.918Z,102605.00
2023-02-06T19:58:30.648Z,102596.00
2023-02-06T20:00:58.958Z,102620.00
2023-02-06T20:03:26.550Z,102617.00
2023-02-06T20:05:53.859Z,102616.00
2023-02-06T20:08:21.129Z,102605.00
2023-02-06T20:10:48.448Z,102609.00
2023-02-06T20:13:15.809Z,102629.00
2023-02-06T20:15:43.777Z,102631.00
2023-02-06T20:18:11.612Z,102615.00
2023-02-06T20:20:39.420Z,102633.00
2023-02-06T20:23:06.804Z,102641.00
2023-02-06T20:25:37.648Z,102641.00
2023-02-06T20:28:05.506Z,102650.00
2023-02-06T20:30:32.937Z,102674.00
2023-02-06T20:33:00.968Z,102667.00
2023-02-06T20:35:28.740Z,102661.00
2023-02-06T20:37:56.094Z,102643.00
2023-02-06T20:40:23.446Z,102648.00
2023-02-06T20:42:50.757Z,102639.00
2023-02-06T20:45:18.043Z,102635.00
2023-02-06T20:47:45.313Z,102625.00
2023-02-06T20:50:13.807Z,102632.00
2023-02-06T20:52:41.149Z,102617.00
2023-02-06T20:55:08.765Z,102614.00
2023-02-06T20:57:36.282Z,102624.00
2023-02-06T21:00:04.566Z,102622.00
2023-02-06T21:02:31.934Z,102633.00
2023-02-06T21:04:59.229Z,102641.00
2023-02-06T21:07:27.913Z,102640.00
2023-02-06T21:09:55.148Z,102642.00
2023-02-06T21:12:22.402Z,102641.00
2023-02-06T21:14:49.655Z,102655.00
2023-02-06T21:17:16.933Z,102658.00
2023-02-06T21:19:44.211Z,102668.00
2023-02-06T21:22:11.537Z,102661.00
2023-02-06T21:24:39.549Z,102659.00
2023-02-06T21:27:06.838Z,102655.00
2023-02-06T21:29:34.171Z,102651.00
2023-02-06T21:32:13.342Z,102647.00
2023-02-06T21:34:45.345Z,102642.00
2023-02-06T21:37:13.736Z,102627.00
2023-02-06T21:39:41.940Z,102629.00
2023-02-06T21:42:11.433Z,102623.00
2023-02-06T21:44:39.038Z,102635.00
2023-02-06T21:47:15.196Z,102634.00
2023-02-06T21:49:49.943Z,102645.00
2023-02-06T21:52:20.124Z,102640.00
2023-02-06T21:54:51.126Z,102651.00
2023-02-06T21:57:18.435Z,102651.00
2023-02-06T22:00:21.828Z,102649.00
2023-02-06T22:02:51.885Z,102666.00
2023-02-06T22:08:25.147Z,102661.00
2023-02-06T22:10:53.242Z,102656.00
2023-02-06T22:13:23.608Z,102658.00
2023-02-06T22:15:56.742Z,102654.00
2023-02-06T22:18:43.086Z,102651.00
2023-02-06T22:21:15.362Z,102647.00
2023-02-06T22:23:48.647Z,102647.00
2023-02-06T22:26:25.391Z,102648.00
2023-02-06T22:29:01.222Z,102651.00
2023-02-06T22:31:39.611Z,102664.00
2023-02-06T22:34:16.605Z,102670.00
2023-02-06T22:36:44.188Z,102648.00
2023-02-06T22:39:12.749Z,102655.00
2023-02-06T22:41:48.289Z,102650.00
2023-02-06T22:44:20.596Z,102650.00
2023-02-06T22:47:18.920Z,102653.00
2023-02-06T22:49:50.257Z,102649.00
2023-02-06T22:52:38.851Z,102652.00
2023-02-06T22:55:12.584Z,102663.00
2023-02-06T22:57:40.706Z,102663.00
2023-02-06T23:00:14.051Z,102668.00
2023-02-06T23:02:41.665Z,102669.00
2023-02-06T23:05:09.828Z,102664.00
2023-02-06T23:07:58.020Z,102664.00
2023-02-06T23:10:25.398Z,102658.00
2023-02-06T23:12:53.317Z,102657.00
2023-02-06T23:15:20.566Z,102658.00
2023-02-06T23:17:48.873Z,102654.00
2023-02-06T23:20:16.370Z,102634.00
2023-02-06T23:22:43.639Z,102652.00
2023-02-06T23:25:10.963Z,102660.00
2023-02-06T23:27:38.244Z,102668.00
2023-02-06T23:30:07.073Z,102675.00
2023-02-06T23:32:34.705Z,102675.00
2023-02-06T23:35:03.837Z,102683.00
2023-02-06T23:37:31.284Z,102688.00
2023-02-06T23:39:58.553Z,102681.00
2023-02-06T23:42:25.817Z,102684.00
2023-02-06T23:44:54.104Z,102683.00
2023-02-06T23:47:22.013Z,102697.00
2023-02-06T23:49:49.271Z,102687.00
2023-02-06T23:52:16.518Z,102681.00
2023-02-06T23:54:43.800Z,102692.00
2023-02-06T23:57:11.083Z,102697.00
2023-02-06T23:59:38.356Z,102689.00
